createdAt,value
2023-04-27T00:01:58.704Z,19.25
2023-04-27T00:04:26.380Z,20.65
2023-04-27T00:06:53.275Z,23.02
2023-04-27T00:09:20.618Z,22.13
2023-04-27T00:11:47.238Z,23.10
2023-04-27T00:14:14.516Z,16.77
2023-04-27T00:16:41.317Z,20.88
2023-04-27T00:19:09.324Z,14.65
2023-04-27T00:21:35.972Z,17.20
2023-04-27T00:24:03.261Z,16.60
2023-04-27T00:26:29.920Z,21.25
2023-04-27T00:28:58.642Z,19.00
2023-04-27T00:31:25.394Z,25.10
2023-04-27T00:33:52.633Z,17.55
2023-04-27T00:36:19.305Z,17.92
2023-04-27T00:38:48.437Z,17.67
2023-04-27T00:41:15.281Z,17.52
2023-04-27T00:43:46.362Z,19.90
2023-04-27T00:46:14.315Z,20.55
2023-04-27T00:48:42.371Z,20.45
2023-04-27T00:51:09.370Z,19.10
2023-04-27T00:53:37.791Z,15.52
2023-04-27T00:56:06.386Z,16.33
2023-04-27T00:58:33.588Z,21.42
2023-04-27T01:01:01.298Z,18.52
2023-04-27T01:03:28.918Z,20.40
2023-04-27T01:05:56.708Z,21.85
2023-04-27T01:08:24.787Z,21.67
2023-04-27T01:10:51.667Z,21.92
2023-04-27T01:13:19.017Z,18.63
2023-04-27T01:15:45.812Z,15.38
2023-04-27T01:18:13.086Z,14.75
2023-04-27T01:20:39.928Z,16.73
2023-04-27T01:23:16.124Z,17.85
2023-04-27T01:25:43.642Z,17.17
2023-04-27T01:28:10.974Z,16.63
2023-04-27T01:30:37.703Z,21.05
2023-04-27T01:33:05.117Z,16.85
2023-04-27T01:35:31.955Z,15.07
2023-04-27T01:38:00.521Z,19.42
2023-04-27T01:40:27.269Z,17.70
2023-04-27T01:42:54.543Z,20.45
2023-04-27T01:45:21.319Z,19.98
2023-04-27T01:47:51.447Z,16.38
2023-04-27T01:50:20.383Z,19.83
2023-04-27T01:52:47.785Z,19.15
2023-04-27T01:55:14.652Z,24.10
2023-04-27T01:57:42.447Z,21.02
2023-04-27T02:00:09.677Z,19.65
2023-04-27T02:02:51.500Z,18.83
2023-04-27T02:05:18.248Z,19.95
2023-04-27T02:07:46.623Z,17.95
2023-04-27T02:10:13.607Z,19.33
2023-04-27T02:12:40.835Z,21.85
2023-04-27T02:15:08.723Z,21.25
2023-04-27T02:17:36.207Z,23.45
2023-04-27T02:20:03.019Z,23.58
2023-04-27T02:22:30.256Z,22.33
2023-04-27T02:24:56.900Z,20.35
2023-04-27T02:27:24.184Z,23.30
2023-04-27T02:29:51.329Z,20.95
2023-04-27T02:32:19.131Z,22.65
2023-04-27T02:34:45.768Z,24.52
2023-04-27T02:37:13.007Z,24.42
2023-04-27T02:39:39.629Z,21.85
2023-04-27T02:42:06.866Z,24.75
2023-04-27T02:44:33.488Z,24.40
2023-04-27T02:47:01.365Z,24.50
2023-04-27T02:49:28.081Z,28.38
2023-04-27T02:51:56.658Z,19.77
2023-04-27T02:54:23.386Z,32.05
2023-04-27T02:56:50.738Z,30.13
2023-04-27T02:59:17.397Z,20.58
2023-04-27T03:01:44.899Z,22.98
2023-04-27T03:04:13.947Z,22.35
2023-04-27T03:06:41.789Z,24.83
2023-04-27T03:09:10.125Z,19.42
2023-04-27T03:11:37.757Z,21.17
2023-04-27T03:14:05.032Z,27.02
2023-04-27T03:16:33.170Z,26.88
2023-04-27T03:19:00.193Z,25.15
2023-04-27T03:21:27.367Z,27.67
2023-04-27T03:23:54.034Z,25.88
2023-04-27T03:26:24.029Z,24.58
2023-04-27T03:28:50.782Z,23.45
2023-04-27T03:31:18.113Z,24.33
2023-04-27T03:33:44.865Z,31.67
2023-04-27T03:36:12.711Z,29.45
2023-04-27T03:38:41.589Z,30.42
2023-04-27T03:41:09.015Z,25.02
2023-04-27T03:43:36.108Z,22.35
2023-04-27T03:46:03.516Z,30.27
2023-04-27T03:48:30.584Z,31.90
2023-04-27T03:50:58.121Z,36.47
2023-04-27T03:53:24.816Z,27.83
2023-04-27T03:55:52.453Z,26.60
2023-04-27T03:58:19.370Z,33.30
2023-04-27T04:03:39.779Z,27.55
2023-04-27T04:06:08.923Z,29.65
2023-04-27T04:08:35.654Z,29.55
2023-04-27T04:11:03.850Z,28.05
2023-04-27T04:13:31.040Z,32.60
2023-04-27T04:16:06.695Z,29.13
2023-04-27T04:18:34.225Z,28.92
2023-04-27T04:21:01.901Z,32.80
2023-04-27T04:23:28.814Z,30.10
2023-04-27T04:25:56.596Z,31.08
2023-04-27T04:28:24.991Z,32.88
2023-04-27T04:30:52.853Z,30.13
2023-04-27T04:33:20.163Z,31.60
2023-04-27T04:35:47.966Z,31.35
2023-04-27T04:38:14.686Z,36.85
2023-04-27T04:40:44.524Z,37.33
2023-04-27T04:43:13.156Z,29.73
2023-04-27T04:45:40.424Z,32.25
2023-04-27T04:48:07.172Z,25.88
2023-04-27T04:50:36.174Z,33.88
2023-04-27T04:53:02.907Z,31.50
2023-04-27T04:55:30.452Z,32.35
2023-04-27T04:57:57.135Z,32.17
2023-04-27T05:00:24.425Z,29.48
2023-04-27T05:02:51.233Z,33.50
2023-04-27T05:05:18.664Z,26.48
2023-04-27T05:07:45.412Z,28.38
2023-04-27T05:10:12.717Z,32.00
2023-04-27T05:12:39.406Z,26.10
2023-04-27T05:15:07.375Z,28.42
2023-04-27T05:17:34.029Z,29.05
2023-04-27T05:20:01.131Z,31.98
2023-04-27T05:22:28.416Z,31.67
2023-04-27T05:24:55.665Z,33.42
2023-04-27T05:27:22.877Z,27.45
2023-04-27T05:29:50.095Z,30.33
2023-04-27T05:32:16.994Z,22.60
2023-04-27T05:34:45.362Z,23.90
2023-04-27T05:37:14.401Z,22.50
2023-04-27T05:39:42.156Z,28.58
2023-04-27T05:42:09.419Z,18.33
2023-04-27T05:44:36.159Z,19.48
2023-04-27T05:47:03.542Z,25.90
2023-04-27T05:49:30.216Z,20.60
2023-04-27T05:51:59.180Z,24.85
2023-04-27T05:54:27.354Z,19.90
2023-04-27T05:56:54.339Z,20.80
2023-04-27T05:59:21.751Z,15.80
2023-04-27T06:01:49.316Z,19.00
2023-04-27T06:04:16.398Z,20.58
2023-04-27T06:06:44.982Z,18.42
2023-04-27T06:09:11.751Z,15.88
2023-04-27T06:11:39.302Z,23.90
2023-04-27T06:14:05.932Z,17.08
2023-04-27T06:16:33.315Z,21.20
2023-04-27T06:18:59.958Z,20.65
2023-04-27T06:21:27.269Z,23.85
2023-04-27T06:23:53.945Z,16.92
2023-04-27T06:26:21.194Z,17.38
2023-04-27T06:28:47.803Z,16.35
2023-04-27T06:31:15.061Z,17.55
2023-04-27T06:33:42.419Z,23.30
2023-04-27T06:36:09.312Z,15.27
2023-04-27T06:38:36.215Z,17.88
2023-04-27T06:41:03.189Z,20.83
2023-04-27T06:43:31.072Z,19.15
2023-04-27T06:45:57.710Z,15.48
2023-04-27T06:48:25.142Z,11.07
2023-04-27T06:50:52.080Z,22.08
2023-04-27T06:53:19.512Z,15.32
2023-04-27T06:55:48.523Z,17.85
2023-04-27T06:58:16.128Z,11.52
2023-04-27T07:00:42.741Z,14.27
2023-04-27T07:03:10.218Z,17.98
2023-04-27T07:05:36.994Z,11.52
2023-04-27T07:08:07.913Z,13.18
2023-04-27T07:10:35.063Z,15.50
2023-04-27T07:13:02.584Z,15.48
2023-04-27T07:15:31.012Z,13.82
2023-04-27T07:17:58.333Z,13.02
2023-04-27T07:20:25.405Z,15.02
2023-04-27T07:22:52.730Z,18.98
2023-04-27T07:25:20.714Z,14.18
2023-04-27T07:27:48.130Z,17.85
2023-04-27T07:30:15.700Z,16.27
2023-04-27T07:32:43.765Z,13.55
2023-04-27T07:35:10.785Z,15.90
2023-04-27T07:37:38.628Z,16.10
2023-04-27T07:40:13.151Z,15.68
2023-04-27T07:42:42.173Z,10.80
2023-04-27T07:45:09.761Z,14.27
2023-04-27T07:47:37.412Z,16.83
2023-04-27T07:50:06.120Z,17.25
2023-04-27T07:52:33.482Z,19.48
2023-04-27T07:55:00.394Z,12.80
2023-04-27T07:57:27.336Z,12.85
2023-04-27T07:59:54.070Z,9.50
2023-04-27T08:02:21.216Z,12.15
2023-04-27T08:04:49.781Z,11.68
2023-04-27T08:07:18.209Z,14.85
2023-04-27T08:09:45.163Z,12.65
2023-04-27T08:12:12.484Z,14.20
2023-04-27T08:14:39.133Z,9.88
2023-04-27T08:17:06.517Z,12.70
2023-04-27T08:19:33.339Z,13.77
2023-04-27T08:22:01.087Z,10.63
2023-04-27T08:24:27.736Z,16.08
2023-04-27T08:26:55.137Z,14.10
2023-04-27T08:29:27.705Z,16.70
2023-04-27T08:32:00.097Z,11.98
2023-04-27T08:34:27.617Z,8.77
2023-04-27T08:36:55.030Z,13.82
2023-04-27T08:39:21.950Z,10.88
2023-04-27T08:41:49.251Z,14.00
2023-04-27T08:44:16.126Z,17.75
2023-04-27T08:46:43.162Z,16.00
2023-04-27T08:49:09.925Z,8.93
2023-04-27T08:51:37.096Z,13.02
2023-04-27T08:54:03.938Z,13.07
2023-04-27T08:56:30.973Z,14.77
2023-04-27T08:58:58.962Z,13.93
2023-04-27T09:01:27.273Z,11.80
2023-04-27T09:04:02.305Z,11.80
2023-04-27T09:06:31.913Z,15.07
2023-04-27T09:08:59.599Z,10.40
2023-04-27T09:11:32.615Z,8.88
2023-04-27T09:14:01.611Z,21.00
2023-04-27T09:16:29.733Z,7.85
2023-04-27T09:18:58.225Z,10.48
2023-04-27T09:21:26.848Z,9.80
2023-04-27T09:23:53.862Z,9.95
2023-04-27T09:26:26.275Z,9.10
2023-04-27T09:28:57.596Z,9.47
2023-04-27T09:31:32.239Z,6.10
2023-04-27T09:33:59.172Z,10.45
2023-04-27T09:36:26.658Z,9.18
2023-04-27T09:38:54.003Z,13.13
2023-04-27T09:41:21.559Z,13.65
2023-04-27T09:43:48.696Z,8.73
2023-04-27T09:46:16.265Z,11.68
2023-04-27T09:48:43.206Z,12.02
2023-04-27T09:51:10.334Z,10.60
2023-04-27T09:54:08.109Z,7.43
2023-04-27T09:56:56.380Z,6.32
2023-04-27T09:59:45.638Z,11.13
2023-04-27T10:02:24.837Z,9.65
2023-04-27T10:05:23.458Z,19.27
2023-04-27T10:07:52.753Z,9.82
2023-04-27T10:10:20.742Z,7.97
2023-04-27T10:13:01.065Z,10.32
2023-04-27T10:15:29.844Z,8.90
2023-04-27T10:18:03.248Z,7.53
2023-04-27T10:20:36.842Z,7.93
2023-04-27T10:23:04.487Z,10.07
2023-04-27T10:25:40.813Z,11.27
2023-04-27T10:28:08.208Z,9.45
2023-04-27T10:30:37.924Z,12.25
2023-04-27T10:33:09.619Z,9.27
2023-04-27T10:35:39.954Z,15.13
2023-04-27T10:38:15.346Z,13.20
2023-04-27T10:40:45.516Z,11.10
2023-04-27T10:43:13.158Z,10.05
2023-04-27T10:45:41.501Z,8.50
2023-04-27T10:48:08.825Z,13.60
2023-04-27T10:50:37.249Z,13.60
2023-04-27T10:53:06.714Z,11.25
2023-04-27T10:55:35.330Z,12.18
2023-04-27T10:58:05.906Z,17.67
2023-04-27T11:00:45.930Z,11.43
2023-04-27T11:03:38.148Z,9.65
2023-04-27T11:10:28.337Z,11.23
2023-04-27T11:13:01.890Z,11.85
2023-04-27T11:15:52.721Z,8.63
2023-04-27T11:18:20.785Z,11.15
2023-04-27T11:21:07.508Z,12.50
2023-04-27T11:23:38.550Z,9.27
2023-04-27T11:26:19.399Z,14.07
2023-04-27T11:28:59.126Z,9.50
2023-04-27T11:31:49.974Z,14.23
2023-04-27T11:34:24.829Z,14.15
2023-04-27T11:37:17.890Z,11.20
2023-04-27T11:42:18.275Z,27.77
2023-04-27T11:44:56.158Z,28.25
2023-04-27T11:47:25.273Z,16.70
2023-04-27T11:49:52.860Z,13.25
2023-04-27T11:52:20.900Z,25.40
2023-04-27T11:54:56.481Z,12.63
2023-04-27T11:57:31.901Z,14.93
2023-04-27T12:00:01.427Z,12.90
2023-04-27T12:02:31.157Z,11.73
2023-04-27T12:04:59.804Z,16.88
2023-04-27T12:07:27.534Z,12.30
2023-04-27T12:09:54.471Z,10.20
2023-04-27T12:12:24.639Z,8.93
2023-04-27T12:14:51.824Z,15.93
2023-04-27T12:17:19.808Z,10.43
2023-04-27T12:19:46.483Z,8.38
2023-04-27T12:22:14.749Z,12.00
2023-04-27T12:24:41.407Z,7.38
2023-04-27T12:27:08.778Z,8.48
2023-04-27T12:29:35.715Z,10.02
2023-04-27T12:32:03.097Z,11.77
2023-04-27T12:34:29.827Z,10.45
2023-04-27T12:36:57.111Z,8.07
2023-04-27T12:39:25.339Z,9.88
2023-04-27T12:41:53.964Z,8.63
2023-04-27T12:44:21.809Z,12.85
2023-04-27T12:46:49.737Z,12.13
2023-04-27T12:49:17.279Z,10.35
2023-04-27T12:51:45.904Z,8.93
2023-04-27T12:54:12.979Z,9.80
2023-04-27T12:56:42.198Z,11.75
2023-04-27T12:59:09.276Z,10.57
2023-04-27T13:01:36.886Z,8.63
2023-04-27T13:04:05.621Z,11.88
2023-04-27T13:06:33.263Z,12.07
2023-04-27T13:09:03.030Z,10.95
2023-04-27T13:11:30.473Z,13.77
2023-04-27T13:13:57.347Z,11.35
2023-04-27T13:16:25.823Z,8.13
2023-04-27T13:18:53.137Z,10.77
2023-04-27T13:21:20.727Z,17.13
2023-04-27T13:23:47.930Z,13.23
2023-04-27T13:26:15.950Z,8.25
2023-04-27T13:28:42.762Z,14.02
2023-04-27T13:31:11.269Z,12.07
2023-04-27T13:33:44.584Z,13.50
2023-04-27T13:36:13.192Z,15.70
2023-04-27T13:38:39.965Z,8.10
2023-04-27T13:41:07.545Z,13.15
2023-04-27T13:43:34.382Z,10.93
2023-04-27T13:46:02.693Z,11.98
2023-04-27T13:48:30.219Z,14.30
2023-04-27T13:50:58.180Z,12.45
2023-04-27T13:53:26.097Z,13.48
2023-04-27T13:55:58.148Z,9.93
2023-04-27T13:58:27.945Z,14.82
2023-04-27T14:00:55.647Z,12.95
2023-04-27T14:03:22.720Z,13.15
2023-04-27T14:05:51.572Z,12.18
2023-04-27T14:08:18.861Z,16.30
2023-04-27T14:10:46.574Z,13.02
2023-04-27T14:13:13.281Z,15.60
2023-04-27T14:15:41.363Z,14.65
2023-04-27T14:18:08.946Z,14.60
2023-04-27T14:20:37.568Z,14.70
2023-04-27T14:23:06.833Z,16.80
2023-04-27T14:25:35.088Z,20.48
2023-04-27T14:28:04.002Z,14.73
2023-04-27T14:30:32.500Z,15.75
2023-04-27T14:32:59.528Z,23.30
2023-04-27T14:35:27.952Z,14.27
2023-04-27T14:37:56.953Z,15.73
2023-04-27T14:40:24.514Z,12.98
2023-04-27T14:42:51.223Z,15.57
2023-04-27T14:45:19.297Z,10.27
2023-04-27T14:47:46.269Z,13.25
2023-04-27T14:50:13.606Z,17.80
2023-04-27T14:52:40.417Z,10.68
2023-04-27T14:55:08.119Z,13.85
2023-04-27T14:57:35.602Z,13.30
2023-04-27T15:00:08.530Z,14.27
2023-04-27T15:02:39.164Z,13.63
2023-04-27T15:05:07.414Z,14.88
2023-04-27T15:07:34.155Z,15.98
2023-04-27T15:10:01.492Z,16.20
2023-04-27T15:12:28.213Z,14.77
2023-04-27T15:14:55.648Z,12.32
2023-04-27T15:17:22.520Z,16.77
2023-04-27T15:19:51.832Z,14.77
2023-04-27T15:22:18.513Z,14.77
2023-04-27T15:24:45.780Z,10.93
2023-04-27T15:27:13.200Z,17.50
2023-04-27T15:29:41.670Z,16.30
2023-04-27T15:32:08.444Z,20.42
2023-04-27T15:34:35.794Z,11.15
2023-04-27T15:37:03.506Z,15.15
2023-04-27T15:39:31.212Z,18.52
2023-04-27T15:41:59.507Z,12.65
2023-04-27T15:44:27.245Z,10.95
2023-04-27T15:46:54.105Z,12.65
2023-04-27T15:49:21.826Z,14.50
2023-04-27T15:51:49.280Z,17.25
2023-04-27T15:54:18.062Z,19.50
2023-04-27T15:56:44.715Z,16.23
2023-04-27T15:59:12.456Z,25.15
2023-04-27T16:01:39.601Z,12.65
2023-04-27T16:04:06.572Z,14.77
2023-04-27T16:06:34.735Z,16.65
2023-04-27T16:09:03.607Z,12.80
2023-04-27T16:11:31.394Z,12.82
2023-04-27T16:14:02.131Z,15.18
2023-04-27T16:16:28.832Z,16.08
2023-04-27T16:18:57.878Z,12.73
2023-04-27T16:21:24.978Z,11.63
2023-04-27T16:23:52.295Z,17.00
2023-04-27T16:26:18.905Z,19.10
2023-04-27T16:28:46.409Z,13.77
2023-04-27T16:31:13.749Z,14.68
2023-04-27T16:33:40.736Z,15.23
2023-04-27T16:36:07.869Z,13.15
2023-04-27T16:38:37.127Z,13.00
2023-04-27T16:41:05.468Z,12.93
2023-04-27T16:43:33.150Z,15.40
2023-04-27T16:45:59.849Z,15.25
2023-04-27T16:48:27.733Z,18.90
2023-04-27T16:50:55.659Z,17.95
2023-04-27T16:53:23.146Z,12.13
2023-04-27T16:55:49.784Z,16.23
2023-04-27T16:58:17.570Z,17.35
2023-04-27T17:00:44.314Z,15.05
2023-04-27T17:03:11.491Z,15.90
2023-04-27T17:05:38.275Z,17.48
2023-04-27T17:08:06.701Z,14.90
2023-04-27T17:10:33.406Z,14.25
2023-04-27T17:13:00.904Z,15.82
2023-04-27T17:15:28.562Z,15.65
2023-04-27T17:17:56.185Z,16.75
2023-04-27T17:20:22.924Z,11.48
2023-04-27T17:22:50.285Z,17.67
2023-04-27T17:25:16.958Z,18.30
2023-04-27T17:27:44.516Z,14.80
2023-04-27T17:30:11.957Z,14.25
2023-04-27T17:32:39.462Z,9.77
2023-04-27T17:35:06.651Z,16.38
2023-04-27T17:37:33.596Z,20.02
2023-04-27T17:40:00.280Z,32.63
2023-04-27T17:42:27.105Z,19.48
2023-04-27T17:44:54.590Z,12.32
2023-04-27T17:47:25.038Z,13.63
2023-04-27T17:49:52.693Z,16.38
2023-04-27T17:52:19.512Z,18.05
2023-04-27T17:54:47.050Z,13.82
2023-04-27T17:57:13.751Z,16.10
2023-04-27T17:59:41.526Z,16.63
2023-04-27T18:02:08.358Z,15.88
2023-04-27T18:04:36.800Z,16.52
2023-04-27T18:07:03.858Z,20.23
2023-04-27T18:09:33.073Z,20.67
2023-04-27T18:12:00.556Z,17.08
2023-04-27T18:14:27.960Z,12.48
2023-04-27T18:16:54.676Z,19.02
2023-04-27T18:19:22.931Z,14.20
2023-04-27T18:21:49.534Z,15.02
2023-04-27T18:24:16.904Z,13.23
2023-04-27T18:26:46.353Z,18.38
2023-04-27T18:29:13.978Z,16.90
2023-04-27T18:31:40.938Z,14.93
2023-04-27T18:34:07.874Z,20.73
2023-04-27T18:36:34.615Z,17.10
2023-04-27T18:39:01.886Z,15.40
2023-04-27T18:41:28.535Z,19.30
2023-04-27T18:44:04.040Z,14.38
2023-04-27T18:46:30.903Z,17.90
2023-04-27T18:48:58.298Z,14.77
2023-04-27T18:51:26.193Z,18.10
2023-04-27T18:53:53.521Z,16.50
2023-04-27T18:56:20.586Z,18.20
2023-04-27T18:58:48.830Z,16.08
2023-04-27T19:01:21.993Z,21.23
2023-04-27T19:03:49.203Z,16.83
2023-04-27T19:06:16.173Z,13.88
2023-04-27T19:08:44.355Z,20.48
2023-04-27T19:11:11.786Z,17.27
2023-04-27T19:13:43.255Z,17.48
2023-04-27T19:16:11.343Z,14.07
2023-04-27T19:18:40.422Z,19.90
2023-04-27T19:21:09.915Z,21.13
2023-04-27T19:23:37.901Z,18.08
2023-04-27T19:28:37.366Z,15.32
2023-04-27T19:31:04.151Z,14.48
2023-04-27T19:33:31.253Z,17.50
2023-04-27T19:35:58.513Z,17.48
2023-04-27T19:38:25.677Z,18.95
2023-04-27T19:40:52.626Z,17.50
2023-04-27T19:43:20.192Z,12.40
2023-04-27T19:45:49.308Z,15.77
2023-04-27T19:48:16.796Z,16.90
2023-04-27T19:50:44.099Z,13.70
2023-04-27T19:53:11.450Z,18.20
2023-04-27T19:55:40.012Z,12.75
2023-04-27T19:58:07.317Z,14.88
2023-04-27T20:00:34.127Z,14.93
2023-04-27T20:03:01.447Z,16.13
2023-04-27T20:05:28.591Z,17.95
2023-04-27T20:07:55.769Z,16.77
2023-04-27T20:10:22.694Z,15.43
2023-04-27T20:12:56.904Z,11.90
2023-04-27T20:15:24.631Z,18.15
2023-04-27T20:17:53.250Z,17.38
2023-04-27T20:20:20.613Z,16.60
2023-04-27T20:22:47.940Z,19.35
2023-04-27T20:25:14.921Z,12.45
2023-04-27T20:27:42.496Z,18.98
2023-04-27T20:30:09.739Z,13.32
2023-04-27T20:32:39.624Z,12.70
2023-04-27T20:35:11.122Z,15.45
2023-04-27T20:37:38.979Z,18.42
2023-04-27T20:40:07.403Z,21.05
2023-04-27T20:42:34.904Z,18.10
2023-04-27T20:45:01.907Z,16.50
2023-04-27T20:47:29.003Z,13.85
2023-04-27T20:49:55.874Z,14.82
2023-04-27T20:52:23.268Z,15.50
2023-04-27T20:54:49.971Z,13.90
2023-04-27T20:57:17.343Z,14.68
2023-04-27T20:59:44.266Z,15.75
2023-04-27T21:02:11.685Z,12.95
2023-04-27T21:04:39.390Z,14.38
2023-04-27T21:07:06.857Z,23.08
2023-04-27T21:09:33.597Z,13.20
2023-04-27T21:12:00.916Z,13.90
2023-04-27T21:14:27.528Z,12.20
2023-04-27T21:16:54.921Z,16.33
2023-04-27T21:19:21.901Z,15.93
2023-04-27T21:21:49.326Z,15.60
2023-04-27T21:24:16.018Z,13.70
2023-04-27T21:26:46.036Z,20.52
2023-04-27T21:29:12.790Z,19.30
2023-04-27T21:31:40.511Z,15.02
2023-04-27T21:34:07.942Z,13.90
2023-04-27T21:36:35.728Z,12.02
2023-04-27T21:39:02.444Z,17.75
2023-04-27T21:41:29.767Z,17.85
2023-04-27T21:43:56.657Z,18.10
2023-04-27T21:46:24.341Z,18.55
2023-04-27T21:48:51.511Z,14.07
2023-04-27T21:51:19.073Z,15.10
2023-04-27T21:53:46.068Z,14.13
2023-04-27T21:56:13.683Z,16.95
2023-04-27T21:58:40.592Z,11.02
2023-04-27T22:01:07.867Z,15.57
2023-04-27T22:03:34.746Z,12.73
2023-04-27T22:06:02.209Z,13.50
2023-04-27T22:08:28.838Z,18.38
2023-04-27T22:10:56.765Z,12.48
2023-04-27T22:13:23.527Z,12.38
2023-04-27T22:15:51.351Z,14.68
2023-04-27T22:18:18.492Z,14.98
2023-04-27T22:20:46.347Z,16.75
2023-04-27T22:23:13.078Z,26.50
2023-04-27T22:25:42.949Z,16.50
2023-04-27T22:28:10.668Z,17.67
2023-04-27T22:30:38.932Z,18.98
2023-04-27T22:33:06.230Z,13.90
2023-04-27T22:35:34.138Z,15.93
2023-04-27T22:38:00.889Z,20.40
2023-04-27T22:40:28.566Z,18.08
2023-04-27T22:42:55.678Z,16.73
2023-04-27T22:45:23.409Z,23.25
2023-04-27T22:47:50.306Z,17.30
2023-04-27T22:50:17.948Z,15.07
2023-04-27T22:52:44.804Z,15.98
2023-04-27T22:55:12.873Z,16.15
2023-04-27T22:57:41.007Z,17.63
2023-04-27T23:00:11.946Z,17.00
2023-04-27T23:02:40.073Z,15.10
2023-04-27T23:05:07.665Z,17.13
2023-04-27T23:07:34.708Z,17.13
2023-04-27T23:10:03.286Z,17.70
2023-04-27T23:12:30.636Z,19.20
2023-04-27T23:14:57.787Z,18.63
2023-04-27T23:17:30.554Z,16.80
2023-04-27T23:22:25.756Z,18.63
2023-04-27T23:24:54.055Z,30.15
2023-04-27T23:27:21.305Z,15.82
2023-04-27T23:29:48.600Z,17.55
2023-04-27T23:32:15.335Z,15.85
2023-04-27T23:34:42.686Z,19.67
2023-04-27T23:37:09.374Z,15.48
2023-04-27T23:39:36.684Z,17.67
2023-04-27T23:42:03.490Z,21.98
2023-04-27T23:44:30.964Z,20.63
2023-04-27T23:46:57.679Z,16.70
2023-04-27T23:49:25.057Z,18.63
2023-04-27T23:51:52.663Z,17.02
2023-04-27T23:54:19.975Z,18.85
2023-04-27T23:56:47.165Z,18.27
2023-04-27T23:59:15.212Z,19.17
